CheckWX is a tool to help pilots better visualize weather data.  It is not intended as a substitute for an official pre-flight weather briefing.

10:31:55 UTC

HESN TAF
Aswan International Airport
Aswan, Egypt
TAF HESN 260500Z 2606/2712 35010KT CAVOK

Jun-26@
06:00 UTC

Jun-26 @ 06:00 UTC

Jun-27@
12:00 UTC

Jun-27 @ 12:00 UTC

TAF HESN 260500Z 2606/2712 35010KT CAVOK
Wind
  • 350° at 10 KTS
Conditions
No significant weather
Cloud Levels
  • No significant clouds